Smithtown, New York
Current Conditions -  °F | °C
As of 2:56 AM on Saturday 25 Oct 2014 (Local Time) from KISP Reporting Station
Clear Clear  
Wind Chill: 46°   Ceiling: Unl
Heat Index: 49°   Visibility: 10mi
Dew Point: 43°   Wind: 7mph
Humidity: 80%   Direction: 300°WNW
Pressure: 29.82"   Gusts: NA
Location:  40.85°N, 73.23°W
Report Text: KISP 250656Z AUTO 30006KT 10SM CLR 09/06 A2982 RMK AO2 SLP098 T00940061
Loading
Personal Weather Stations






























Interactive Weather Map
Tropical Storm Tracking
New forecast layout! Learn more

10-Day Weather Forecast

Advertisements
Track Severe Weather on mobile